M I D A S
Marine Information and Data Acquisition System
Tripno 2124 of the Zeeleeuw from 2011-06-20 06:51:14 to 2011-06-20 15:03:38
Back to CruiseResearch ActivitiesStationsMapUnderway DataData graphs

EquipmentUnitsComment
TimeDGPSUTC
LatitudeDGPSDM.mWGS84
LongitudeDGPSDM.mWGS84
TemperatureSBE03/SBE38deg celciusITS90
ConductivitySBE21S/mITS90
SalinitySBE21 Practical Salinity Units
ChlorophylAChelsea fluorimeterg/lCalibrated in Aceton
Missing or incorrect values are displayed as -999
Sea surface data collected by the RV Zeeleeuw from 2011-06-20 06:51:25 to 2011-06-20 15:51:21
Time Latitude Longitude Temperature Conductivity Salinity ChlorophylA
2011-06-20 06:52:32 51°13.66 2°55.926 17.7065 4.534571 34.824502 -3.020363
2011-06-20 06:53:32 51°13.687 2°55.814 17.7075 4.534156 34.825739 -3.020363
2011-06-20 06:54:32 51°13.696 2°55.737 17.7135 4.533741 34.825602 -3.020363
2011-06-20 06:55:30 51°13.71 2°55.741 17.6846 4.533326 34.827526 -3.020363
2011-06-20 06:56:32 51°13.703 2°55.739 17.7185 4.532808 34.823748 -3.020363
2011-06-20 06:57:32 51°13.778 2°55.676 17.686 4.532496 34.825191 -3.020363
2011-06-20 06:58:32 51°13.929 2°55.56 17.6854 4.531978 34.824849 -3.020363
2011-06-20 06:59:32 51°14.097 2°55.434 17.6897 4.531667 34.82698 -3.020363
2011-06-20 07:00:31 51°14.263 2°55.296 17.6856 4.531252 34.826156 -3.020363
2011-06-20 07:01:28 51°14.424 2°55.144 17.6825 4.530733 34.824439 -3.020363
2011-06-20 07:02:29 51°14.592 2°54.957 17.6223 4.530422 34.825196 -3.020363
2011-06-20 07:03:29 51°14.766 2°54.752 17.6175 4.530007 34.824373 -3.020363
2011-06-20 07:04:29 51°14.947 2°54.552 17.5975 4.529592 34.823549 -3.020363
2011-06-20 07:05:29 51°15.131 2°54.361 17.5406 4.529281 34.824306 -3.020363
2011-06-20 07:06:29 51°15.342 2°54.301 17.568 4.528866 34.823483 -3.020363
2011-06-20 07:07:28 51°15.554 2°54.304 17.58 4.528451 34.824722 -3.020363
2011-06-20 07:08:28 51°15.769 2°54.296 17.591 4.52814 34.825481 -3.020363
2011-06-20 07:09:29 51°15.98 2°54.267 17.5952 4.527725 34.824657 -3.020363
2011-06-20 07:10:28 51°16.115 2°54.289 17.6058 4.527414 34.825416 -3.020363
2011-06-20 07:11:28 51°16.198 2°54.31 17.6247 4.526895 34.825074 -3.020363
2011-06-20 07:12:28 51°16.249 2°54.304 17.6343 4.526584 34.825145 -3.020363
2011-06-20 07:13:28 51°16.254 2°54.289 17.6457 4.526169 34.82501 -3.020363
2011-06-20 07:14:29 51°16.251 2°54.28 17.6532 4.525858 34.824392 -3.020363
2011-06-20 07:15:29 51°16.248 2°54.266 17.6632 4.525547 34.82584 -3.020363
2011-06-20 07:16:29 51°16.248 2°54.254 17.6799 4.525132 34.825016 -3.020363
2011-06-20 07:17:29 51°16.25 2°54.238 17.682 4.52482 34.825087 -3.020363
2011-06-20 07:18:29 51°16.251 2°54.223 17.6966 4.524509 34.825847 -3.020363
2011-06-20 07:19:29 51°16.254 2°54.209 17.714 4.524094 34.824335 -3.020363
2011-06-20 07:20:29 51°16.257 2°54.197 17.7195 4.523679 34.823511 -3.020363
2011-06-20 07:21:29 51°16.259 2°54.182 17.7189 4.523472 34.824477 -3.020363
2011-06-20 07:22:28 51°16.263 2°54.171 17.7451 4.523161 34.824549 -3.020363
2011-06-20 07:23:28 51°16.318 2°54.176 17.7706 4.522953 34.828272 -3.020363
2011-06-20 07:24:29 51°16.42 2°54.043 17.7682 4.522642 34.824897 -3.020363
2011-06-20 07:25:29 51°16.56 2°53.865 17.7832 4.522331 34.824969 -3.020363
2011-06-20 07:26:29 51°16.709 2°53.629 17.7934 4.522123 34.825936 -3.020363
2011-06-20 07:27:29 51°16.856 2°53.367 17.8044 4.521916 34.826213 -3.020363
2011-06-20 07:28:29 51°16.992 2°53.108 17.8358 4.521605 34.826285 -3.020363
2011-06-20 07:29:29 51°17.11 2°52.813 17.837 4.521397 34.826563 -3.020363
2011-06-20 07:30:29 51°17.254 2°52.549 17.8539 4.520982 34.82505 -3.020363
2011-06-20 07:31:29 51°17.408 2°52.302 17.8524 4.520775 34.826707 -3.020363
2011-06-20 07:32:29 51°17.581 2°52.089 17.8641 4.520464 34.826779 -3.020363
2011-06-20 07:33:29 51°17.745 2°51.861 17.879 4.520153 34.826852 -3.020363
2011-06-20 07:34:29 51°17.916 2°51.643 17.8965 4.519945 34.82713 -3.020363
2011-06-20 07:35:29 51°18.082 2°51.409 17.9077 4.519634 34.827892 -3.020363
2011-06-20 07:36:29 51°18.252 2°51.196 17.9246 4.519427 34.82817 -3.020363
2011-06-20 07:37:29 51°18.401 2°51.017 17.934 4.519115 34.828933 -3.020363
2011-06-20 07:38:29 51°18.505 2°50.957 17.951 4.518804 34.829696 -3.020363
2011-06-20 07:39:29 51°18.534 2°50.968 17.9646 4.518493 34.828389 -3.020363
2011-06-20 07:40:29 51°18.538 2°50.951 17.9763 4.518182 34.827771 -3.020363
2011-06-20 07:41:29 51°18.542 2°50.933 17.9928 4.517974 34.82943 -3.020363
2011-06-20 07:42:29 51°18.546 2°50.916 18 4.517767 34.829709 -3.020363
2011-06-20 07:43:29 51°18.55 2°50.898 18.0156 4.517456 34.829092 -3.020363
2011-06-20 07:44:29 51°18.554 2°50.88 18.0384 4.517248 34.830061 -3.020363
2011-06-20 07:45:29 51°18.577 2°50.944 18.0446 4.516937 34.828754 -3.020363
2011-06-20 07:46:29 51°18.64 2°51.193 18.0446 4.51673 34.829033 -3.020363
2011-06-20 07:47:29 51°18.71 2°51.493 18.0507 4.516626 34.829518 -3.020363
2011-06-20 07:48:28 51°18.765 2°51.796 18.0836 4.516315 34.8289 -3.020363
2011-06-20 07:49:29 51°18.821 2°52.109 18.0912 4.516004 34.828974 -3.020363
2011-06-20 07:50:28 51°18.879 2°52.408 18.0939 4.5159 34.83084 -3.020363
2011-06-20 07:51:28 51°18.934 2°52.714 18.118 4.515692 34.83112 -3.020363
2011-06-20 07:52:28 51°18.984 2°53.02 18.1326 4.515381 34.831193 -3.020363
2011-06-20 07:53:28 51°19.046 2°53.32 18.1402 4.51507 34.832649 -3.020363
2011-06-20 07:54:28 51°19.104 2°53.624 18.1508 4.514863 34.832929 -3.020363
2011-06-20 07:55:29 51°19.159 2°53.932 18.1686 4.514552 34.833694 -3.020363
2011-06-20 07:56:29 51°19.216 2°54.233 18.167 4.51424 34.83446 -3.020363
2011-06-20 07:57:28 51°19.262 2°54.533 18.1749 4.514033 34.835431 -3.020363
2011-06-20 07:58:28 51°19.32 2°54.832 18.1984 4.513618 34.834609 -3.020363
2011-06-20 07:59:29 51°19.378 2°55.136 18.1989 4.513307 34.834683 -3.020363
2011-06-20 08:00:29 51°19.425 2°55.442 18.206 4.512996 34.834758 -3.020363
2011-06-20 08:01:28 51°19.484 2°55.734 18.2411 4.512684 34.834833 -3.020363
2011-06-20 08:02:29 51°19.547 2°56.035 18.2496 4.51227 34.83401 -3.020363
2011-06-20 08:03:28 51°19.603 2°56.328 18.2511 4.511958 34.834777 -3.020363
2011-06-20 08:04:28 51°19.674 2°56.619 18.2708 4.511647 34.834852 -3.020363
2011-06-20 08:05:28 51°19.727 2°56.92 18.293 4.511336 34.834927 -3.020363
2011-06-20 08:06:29 51°19.796 2°57.22 18.2977 4.510921 34.834797 -3.020363
2011-06-20 08:07:28 51°19.852 2°57.515 18.3226 4.51061 34.834872 -3.020363
2011-06-20 08:08:29 51°19.925 2°57.812 18.3102 4.510299 34.834947 -3.020363
2011-06-20 08:09:28 51°19.979 2°58.107 18.3354 4.509988 34.835023 -3.020363
2011-06-20 08:10:29 51°20.049 2°58.404 18.3488 4.509573 34.834893 -3.020363
2011-06-20 08:11:29 51°20.106 2°58.703 18.3655 4.509262 34.834276 -3.020363
2011-06-20 08:12:29 51°20.17 2°58.996 18.3716 4.50895 34.835044 -3.020363
2011-06-20 08:13:29 51°20.225 2°59.292 18.3824 4.508639 34.83512 -3.020363
2011-06-20 08:14:29 51°20.297 2°59.577 18.3851 4.508328 34.835888 -3.020363
2011-06-20 08:15:29 51°20.351 2°59.871 18.4167 4.508017 34.835271 -3.020363
2011-06-20 08:16:29 51°20.404 3°0.164 18.4309 4.507602 34.834449 -3.020363
2011-06-20 08:17:28 51°20.466 3°0.443 18.416 4.507291 34.835911 -3.020363
2011-06-20 08:18:28 51°20.528 3°0.73 18.437 4.50698 34.835294 -3.020363
2011-06-20 08:19:28 51°20.579 3°1.019 18.4575 4.506565 34.834472 -3.020363
2011-06-20 08:20:28 51°20.642 3°1.3 18.4422 4.506253 34.834548 -3.020363
2011-06-20 08:21:29 51°20.705 3°1.587 18.4789 4.506046 34.836216 -3.020363
2011-06-20 08:22:29 51°20.771 3°1.869 18.4867 4.505631 34.835394 -3.020363
2011-06-20 08:23:28 51°20.822 3°2.151 18.4864 4.505424 34.835676 -3.020363
2011-06-20 08:24:29 51°20.889 3°2.436 18.5135 4.505009 34.835547 -3.020363
2011-06-20 08:25:28 51°20.95 3°2.712 18.5407 4.504594 34.834032 -3.020363
2011-06-20 08:26:29 51°21.007 3°2.997 18.5513 4.504386 34.835007 -3.020363
2011-06-20 08:27:28 51°21.061 3°3.274 18.5545 4.504075 34.836471 -3.020363
2011-06-20 08:28:29 51°21.136 3°3.547 18.5811 4.50366 34.834955 -3.020363
2011-06-20 08:29:28 51°21.21 3°3.812 18.589 4.503349 34.834339 -3.020363
2011-06-20 08:30:29 51°21.288 3°4.083 18.605 4.503038 34.833722 -3.020363
2011-06-20 08:31:28 51°21.354 3°4.347 18.6233 4.502831 34.835392 -3.020363
2011-06-20 08:32:29 51°21.433 3°4.611 18.6296 4.502416 34.83457 -3.020363
2011-06-20 08:33:28 51°21.5 3°4.868 18.6468 4.502104 34.833954 -3.020363
2011-06-20 08:34:28 51°21.568 3°5.129 18.6627 4.501897 34.83493 -3.020363
2011-06-20 08:35:29 51°21.629 3°5.399 18.6802 4.501482 34.833414 -3.020363
2011-06-20 08:36:28 51°21.684 3°5.661 18.6855 4.501275 34.833697 -3.020363
2011-06-20 08:37:28 51°21.747 3°5.923 18.6976 4.50086 34.835651 -3.020363
2011-06-20 08:38:29 51°21.802 3°6.194 18.7174 4.500445 34.829278 -3.020363
2011-06-20 08:39:29 51°21.866 3°6.455 18.7231 4.500341 34.833236 -3.020363
2011-06-20 08:40:28 51°21.917 3°6.72 18.7459 4.50003 34.833313 -3.020363
2011-06-20 08:41:29 51°21.973 3°6.993 18.7546 4.499615 34.831103 -3.020363
2011-06-20 08:42:28 51°21.969 3°7.271 18.7831 4.499719 34.833391 -3.020363
2011-06-20 08:43:28 51°21.983 3°7.553 18.7829 4.499408 34.834857 -3.020363
2011-06-20 08:44:29 51°21.995 3°7.839 18.7971 4.4992 34.834446 -3.020363
2011-06-20 08:45:29 51°22.02 3°8.115 18.8239 4.498889 34.83383 -3.020363
2011-06-20 08:46:29 51°22.047 3°8.391 18.8387 4.498578 34.833214 -3.020363
2011-06-20 08:47:29 51°22.077 3°8.665 18.8615 4.49837 34.833497 -3.020363
2011-06-20 08:48:29 51°22.12 3°8.935 18.8392 4.498163 34.834475 -3.020363
2011-06-20 08:49:29 51°22.162 3°9.204 18.8891 4.497852 34.833859 -3.020363
2011-06-20 08:50:29 51°22.206 3°9.473 18.8818 4.497644 34.834837 -3.020363
2011-06-20 08:51:29 51°22.251 3°9.743 18.8838 4.497333 34.834221 -3.020363
2011-06-20 08:52:29 51°22.272 3°10.019 18.9232 4.497126 34.834505 -3.020363
2011-06-20 08:53:29 51°22.305 3°10.293 18.9082 4.496918 34.835483 -3.020363
2011-06-20 08:54:29 51°22.325 3°10.507 18.9476 4.496607 34.834867 -3.020363
2011-06-20 08:55:29 51°22.353 3°10.672 18.9565 4.496296 34.834251 -3.020363
2011-06-20 08:56:28 51°22.372 3°10.8 18.9761 4.496089 34.83384 -3.020363
2011-06-20 08:57:29 51°22.386 3°10.923 18.9873 4.495881 34.834124 -3.020363
2011-06-20 08:58:29 51°22.402 3°11.045 19.0042 4.49557 34.833508 -3.020363
2011-06-20 08:59:29 51°22.431 3°11.204 19.0248 4.495362 34.833792 -3.020363
2011-06-20 09:00:29 51°22.46 3°11.375 19.0157 4.495155 34.834076 -3.020363
2011-06-20 09:01:29 51°22.483 3°11.544 19.0283 4.494948 34.833665 -3.020363
2011-06-20 09:02:29 51°22.476 3°11.603 19.0659 4.49474 34.833949 -3.020363
2011-06-20 09:03:29 51°22.467 3°11.563 19.086 4.494533 34.832843 -3.020363
2011-06-20 09:04:29 51°22.464 3°11.512 19.0855 4.494325 34.833823 -3.020363
2011-06-20 09:05:29 51°22.459 3°11.459 19.1021 4.494222 34.834313 -3.020363
2011-06-20 09:06:29 51°22.455 3°11.406 19.1089 4.494014 34.833207 -3.020363
2011-06-20 09:07:29 51°22.452 3°11.353 19.1138 4.49391 34.834392 -3.020363
2011-06-20 09:08:29 51°22.449 3°11.3 19.137 4.493703 34.833981 -3.020363
2011-06-20 09:09:29 51°22.443 3°11.251 19.146 4.493495 34.83357 -3.020363
2011-06-20 09:10:29 51°22.434 3°11.253 19.1689 4.493392 34.836147 -3.020363
2011-06-20 09:11:29 51°22.453 3°11.389 19.1812 4.493288 34.834551 -3.020363
2011-06-20 09:12:29 51°22.473 3°11.624 19.1635 4.493081 34.834835 -3.020363
2011-06-20 09:13:29 51°22.485 3°11.883 19.1809 4.492977 34.833934 -3.020363
2011-06-20 09:14:29 51°22.5 3°12.146 19.2169 4.492873 34.83512 -3.020363
2011-06-20 09:15:29 51°22.53 3°12.407 19.2018 4.492769 34.83561 -3.020363
2011-06-20 09:16:29 51°22.547 3°12.671 19.2534 4.492562 34.8352 -3.020363
2011-06-20 09:17:29 51°22.585 3°12.93 19.2564 4.492458 34.83569 -3.020363
2011-06-20 09:18:29 51°22.63 3°13.179 19.2507 4.492355 34.836876 -3.020363
2011-06-20 09:19:29 51°22.62 3°13.276 19.3039 4.492147 34.836465 -3.020363
2011-06-20 09:20:29 51°22.599 3°13.258 19.2985 4.492043 34.836956 -3.020363
2011-06-20 09:21:29 51°22.598 3°13.211 19.3118 4.49194 34.837447 -3.020363
2011-06-20 09:22:29 51°22.598 3°13.164 19.3406 4.491732 34.837732 -3.020363
2011-06-20 09:23:29 51°22.598 3°13.117 19.3232 4.491629 34.837526 -3.020363
2011-06-20 09:24:29 51°22.597 3°13.07 16.8627 4.492977 34.863174 -3.020363
2011-06-20 09:25:29 51°22.597 3°13.025 16.3377 4.102566 31.739123 -3.020363
2011-06-20 09:26:29 51°22.598 3°12.979 16.3189 4.006596 31.193389 -3.020363
2011-06-20 09:27:29 51°22.589 3°12.945 16.2997 3.997892 31.145759 -3.020363
2011-06-20 09:28:29 51°22.585 3°12.953 16.3059 4.00639 31.236706 -3.020363
2011-06-20 09:29:29 51°22.65 3°12.979 16.3183 4.003799 31.211655 -3.020363
2011-06-20 09:30:29 51°22.814 3°13.045 16.3049 4.00525 31.213448 -3.020363
2011-06-20 09:31:30 51°23.021 3°13.041 16.3049 4.010535 31.268264 -3.020363
2011-06-20 09:32:30 51°23.226 3°13.014 16.2593 4.040383 31.538658 -3.020363
2011-06-20 09:33:29 51°23.424 3°12.93 16.2539 4.059869 31.73868 -3.020363
2011-06-20 09:34:30 51°23.63 3°12.876 16.2516 4.07552 31.876445 -3.020363
2011-06-20 09:35:29 51°23.828 3°12.804 16.243 4.071996 31.848309 -3.020363
2011-06-20 09:36:29 51°24.032 3°12.737 16.2392 4.080599 31.930526 -3.020363
2011-06-20 09:37:29 51°24.239 3°12.657 16.2325 4.080806 31.933639 -3.020363
2011-06-20 09:38:29 51°24.447 3°12.585 16.2216 4.086403 31.987718 -3.020363
2011-06-20 09:39:29 51°24.65 3°12.478 16.2216 4.092104 32.053864 -3.020363
2011-06-20 09:40:29 51°24.824 3°12.254 16.2251 4.088787 32.021614 -3.020363
2011-06-20 09:41:29 51°24.948 3°11.946 16.2293 4.087232 32.006071 -3.020363
2011-06-20 09:42:29 51°25.045 3°11.616 16.231 4.088269 32.009238 -3.020363
2011-06-20 09:43:30 51°25.094 3°11.255 16.2309 4.091482 32.034683 -3.020363
2011-06-20 09:44:29 51°25.059 3°10.894 16.2353 4.097701 32.089003 -3.020363
2011-06-20 09:45:29 51°24.987 3°10.541 16.2416 4.10817 32.17653 -3.020363
2011-06-20 09:46:28 51°24.907 3°10.2 16.2183 4.123719 32.318376 -3.020363
2011-06-20 09:47:30 51°24.81 3°9.848 16.2019 4.140512 32.479218 -3.020363
2011-06-20 09:48:29 51°24.776 3°9.489 16.1828 4.158447 32.646292 -3.020363
2011-06-20 09:49:29 51°24.741 3°9.126 16.1649 4.17493 32.808241 -3.020363
2011-06-20 09:50:29 51°24.698 3°8.763 16.152 4.188097 32.933906 -3.020363
2011-06-20 09:51:28 51°24.636 3°8.415 16.1453 4.203233 33.077026 -3.020363
2011-06-20 09:52:30 51°24.623 3°8.045 16.1341 4.221377 33.242004 -3.020363
2011-06-20 09:53:28 51°24.621 3°7.701 16.1377 4.239625 33.413551 -3.020363
2011-06-20 09:54:30 51°24.696 3°7.371 16.145 4.251445 33.507364 -3.020363
2011-06-20 09:55:28 51°24.849 3°7.171 16.1635 4.261606 33.59275 -3.020363
2011-06-20 09:56:30 51°25.047 3°7.095 16.1221 4.27322 33.699925 -3.020363
2011-06-20 09:57:28 51°25.236 3°7.067 16.1156 4.282138 33.796566 -3.020363
2011-06-20 09:58:30 51°25.436 3°7.045 16.1086 4.287115 33.848125 -3.020363
2011-06-20 09:59:30 51°25.622 3°7.115 16.1021 4.292403 33.897594 -3.020363
2011-06-20 10:00:28 51°25.773 3°7.279 16.1046 4.296655 33.941407 -3.020363
2011-06-20 10:01:30 51°25.905 3°7.511 16.113 4.297484 33.943161 -3.020363
2011-06-20 10:02:28 51°26.045 3°7.693 16.1224 4.295825 33.921547 -3.020363
2011-06-20 10:03:30 51°26.184 3°7.913 16.1214 4.291159 33.871316 -3.020363
2011-06-20 10:04:28 51°26.323 3°8.101 16.1376 4.288878 33.854656 -3.020363
2011-06-20 10:05:30 51°26.433 3°8.256 16.1384 4.280478 33.768767 -3.020363
2011-06-20 10:06:28 51°26.446 3°8.317 16.146 4.280582 33.766912 -3.020363
2011-06-20 10:07:28 51°26.43 3°8.305 16.1556 4.27716 33.727058 -3.020363
2011-06-20 10:08:29 51°26.413 3°8.289 16.15 4.276641 33.721106 -3.020363
2011-06-20 10:09:29 51°26.398 3°8.273 16.1386 4.275916 33.720236 -3.020363
2011-06-20 10:10:30 51°26.383 3°8.255 16.1337 4.27519 33.721441 -3.020363
2011-06-20 10:11:28 51°26.37 3°8.236 16.1276 4.274775 33.72124 -3.020363
2011-06-20 10:12:30 51°26.355 3°8.221 16.125 4.274464 33.722646 -3.020363
2011-06-20 10:13:28 51°26.36 3°8.251 16.1214 4.274257 33.724967 -3.020363
2011-06-20 10:14:30 51°26.402 3°8.208 16.139 4.273635 33.720171 -3.020363
2011-06-20 10:15:28 51°26.388 3°8.06 16.142 4.273116 33.702465 -3.020363
2011-06-20 10:16:28 51°26.346 3°7.761 16.1349 4.273116 33.697629 -3.020363
2011-06-20 10:17:30 51°26.349 3°7.394 16.0743 4.274464 33.727488 -3.020363
2011-06-20 10:18:28 51°26.414 3°7.065 16.0922 4.273635 33.754791 -3.020363
2011-06-20 10:19:30 51°26.56 3°6.799 16.1096 4.278197 33.778431 -3.020363
2011-06-20 10:20:28 51°26.697 3°6.554 16.1242 4.282967 33.817066 -3.020363
2011-06-20 10:21:30 51°26.837 3°6.274 16.134 4.286181 33.827394 -3.020363
2011-06-20 10:22:28 51°26.967 3°6.01 16.0968 4.291366 33.869673 -3.020363
2011-06-20 10:23:28 51°27.107 3°5.746 16.0917 4.299766 33.979349 -3.020363
2011-06-20 10:24:30 51°27.254 3°5.476 16.1288 4.30578 34.023422 -3.020363
2011-06-20 10:25:28 51°27.38 3°5.205 16.1501 4.311587 34.043296 -3.020363
2011-06-20 10:26:30 51°27.521 3°4.927 16.0258 4.328283 34.209014 -3.020363
2011-06-20 10:27:28 51°27.648 3°4.66 16.0026 4.335336 34.352459 -3.020363
2011-06-20 10:28:30 51°27.788 3°4.378 15.9836 4.3371 34.388613 -3.020363
2011-06-20 10:29:28 51°27.935 3°4.139 15.9987 4.337929 34.400223 -3.020363
2011-06-20 10:30:30 51°28.102 3°3.897 16.0163 4.339692 34.400985 -3.020363
2011-06-20 10:31:28 51°28.266 3°3.691 16.0463 4.340936 34.397151 -3.020363
2011-06-20 10:32:30 51°28.345 3°3.531 16.0925 4.343218 34.401806 -3.020363
2011-06-20 10:33:30 51°28.332 3°3.436 16.1405 4.34778 34.386386 -3.020363
2011-06-20 10:34:28 51°28.312 3°3.386 16.1358 4.350372 34.386038 -3.020363
2011-06-20 10:35:30 51°28.292 3°3.34 16.1289 4.350476 34.38625 -3.020363
2011-06-20 10:36:28 51°28.272 3°3.3 16.1287 4.34975 34.384767 -3.020363
2011-06-20 10:37:30 51°28.253 3°3.26 16.1252 4.349231 34.384412 -3.020363
2011-06-20 10:38:28 51°28.235 3°3.222 16.1293 4.349024 34.382578 -3.020363
2011-06-20 10:39:30 51°28.213 3°3.179 16.1221 4.349024 34.381872 -3.020363
2011-06-20 10:40:28 51°28.167 3°3.093 16.1312 4.348505 34.382224 -3.020363
2011-06-20 10:41:28 51°28.11 3°2.9 16.1407 4.349439 34.378489 -3.020363
2011-06-20 10:42:30 51°28.03 3°2.572 16.0925 4.350476 34.388366 -3.020363
2011-06-20 10:43:28 51°27.947 3°2.224 16.0761 4.345084 34.38229 -3.020363
2011-06-20 10:44:30 51°27.861 3°1.851 16.0898 4.338861 34.325799 -3.020363
2011-06-20 10:45:28 51°27.788 3°1.492 16.1417 4.33378 34.273789 -3.020363
2011-06-20 10:46:30 51°27.712 3°1.104 16.1418 4.333468 34.221855 -3.020363
2011-06-20 10:47:28 51°27.636 3°0.741 16.1031 4.326727 34.179832 -3.020363
2011-06-20 10:48:28 51°27.55 3°0.369 16.088 4.323513 34.17947 -3.020363
2011-06-20 10:49:29 51°27.503 2°59.982 16.0826 4.322269 34.175483 -3.020363
2011-06-20 10:50:28 51°27.459 2°59.605 16.1272 4.323306 34.183953 -3.020363
2011-06-20 10:51:30 51°27.413 2°59.213 16.1228 4.326416 34.175681 -3.020363
2011-06-20 10:52:29 51°27.36 2°58.844 16.1006 4.328905 34.204689 -3.020363
2011-06-20 10:53:30 51°27.314 2°58.459 16.0697 4.330461 34.246542 -3.020363
2011-06-20 10:54:28 51°27.275 2°58.093 16.0545 4.330565 34.266459 -3.020363
2011-06-20 10:55:28 51°27.221 2°57.718 16.0332 4.331914 34.291781 -3.020363
2011-06-20 10:56:29 51°27.171 2°57.334 16.0143 4.336581 34.355713 -3.020363
2011-06-20 10:57:28 51°27.127 2°56.959 16.0281 4.339484 34.391357 -3.020363
2011-06-20 10:58:29 51°27.083 2°56.568 16.043 4.342595 34.399121 -3.020363
2011-06-20 10:59:28 51°27.027 2°56.189 16.104 4.34581 34.415582 -3.020363
2011-06-20 11:00:29 51°26.975 2°55.794 16.0981 4.347676 34.383351 -3.020363
2011-06-20 11:01:28 51°26.928 2°55.409 16.1278 4.334817 34.280149 -3.020363
2011-06-20 11:02:30 51°26.876 2°55 16.1625 4.326209 34.168243 -3.020363
2011-06-20 11:03:29 51°26.831 2°54.61 16.2223 4.323201 34.113699 -3.020363
2011-06-20 11:04:28 51°26.777 2°54.221 16.2213 4.327037 34.107047 -3.020363
2011-06-20 11:05:29 51°26.726 2°53.822 16.1711 4.328593 34.125648 -3.020363
2011-06-20 11:06:29 51°26.68 2°53.435 16.1078 4.333468 34.212037 -3.020363
2011-06-20 11:07:29 51°26.64 2°53.052 15.9782 4.33855 34.324455 -3.020363
2011-06-20 11:08:29 51°26.595 2°52.668 15.9374 4.334404 34.384524 -3.020363
2011-06-20 11:09:29 51°26.548 2°52.282 15.9215 4.332226 34.397099 -3.020363
2011-06-20 11:10:29 51°26.504 2°51.894 15.9206 4.331604 34.400799 -3.020363
2011-06-20 11:11:29 51°26.464 2°51.504 15.9163 4.33233 34.409379 -3.020363
2011-06-20 11:12:29 51°26.42 2°51.115 15.9333 4.333782 34.417308 -3.020363
2011-06-20 11:13:29 51°26.373 2°50.728 15.8998 4.336686 34.441687 -3.020363
2011-06-20 11:14:29 51°26.332 2°50.339 15.8625 4.338242 34.483975 -3.020363
2011-06-20 11:15:28 51°26.282 2°49.963 15.7967 4.339694 34.527557 -3.020363
2011-06-20 11:16:29 51°26.245 2°49.576 15.7131 4.339073 34.593563 -3.020363
2011-06-20 11:17:28 51°26.201 2°49.206 15.607 4.33617 34.634438 -3.020363
2011-06-20 11:18:29 51°26.164 2°48.89 15.5574 4.330986 34.668063 -3.020363
2011-06-20 11:19:28 51°26.135 2°48.72 15.5235 4.328395 34.688204 -3.020363
2011-06-20 11:20:29 51°26.061 2°48.652 15.508 4.327047 34.70218 -3.020363
2011-06-20 11:21:29 51°26.012 2°48.633 15.5027 4.326217 34.707781 -3.020363
2011-06-20 11:22:29 51°25.987 2°48.606 15.5003 4.325803 34.710584 -3.020363
2011-06-20 11:23:29 51°25.962 2°48.581 15.494 4.325803 34.711309 -3.020363
2011-06-20 11:24:29 51°25.939 2°48.554 15.4917 4.325388 34.712662 -3.020363
2011-06-20 11:25:29 51°25.919 2°48.526 15.4964 4.325388 34.713388 -3.020363
2011-06-20 11:26:29 51°25.9 2°48.496 15.4887 4.325077 34.71277 -3.020363
2011-06-20 11:27:29 51°25.883 2°48.463 15.492 4.325077 34.712045 -3.020363
2011-06-20 11:28:29 51°25.84 2°48.478 15.4917 4.325077 34.714222 -3.020363
2011-06-20 11:29:29 51°25.716 2°48.564 15.5044 4.325284 34.711731 -3.020363
2011-06-20 11:30:29 51°25.548 2°48.636 15.536 4.325388 34.701059 -3.020363
2011-06-20 11:31:29 51°25.369 2°48.705 15.6138 4.326839 34.672086 -3.020363
2011-06-20 11:32:29 51°25.194 2°48.738 15.6314 4.330468 34.649704 -3.020363
2011-06-20 11:33:29 51°25.089 2°48.661 15.6165 4.331193 34.648268 -3.020363
2011-06-20 11:34:29 51°25.037 2°48.572 15.616 4.329949 34.647227 -3.020363
2011-06-20 11:35:28 51°25.012 2°48.508 15.6125 4.329638 34.645884 -3.020363
2011-06-20 11:36:29 51°24.993 2°48.452 15.6161 4.329431 34.64547 -3.020363
2011-06-20 11:37:29 51°24.975 2°48.401 15.613 4.329638 34.646606 -3.020363
2011-06-20 11:38:30 51°24.957 2°48.356 15.6122 4.329534 34.64712 -3.020363
2011-06-20 11:39:28 51°24.94 2°48.318 15.6156 4.329638 34.645884 -3.020363
2011-06-20 11:40:30 51°24.921 2°48.281 15.6145 4.329534 34.645677 -3.020363
2011-06-20 11:41:28 51°24.903 2°48.249 15.6126 4.329534 34.64712 -3.020363
2011-06-20 11:42:30 51°24.885 2°48.211 15.6095 4.329638 34.646606 -3.020363
2011-06-20 11:43:28 51°24.861 2°48.122 15.6095 4.329638 34.647327 -3.020363
2011-06-20 11:44:28 51°24.745 2°47.93 15.6064 4.329431 34.649078 -3.020363
2011-06-20 11:45:28 51°24.594 2°47.666 15.5948 4.330053 34.651041 -3.020363
2011-06-20 11:46:29 51°24.459 2°47.337 15.5598 4.329431 34.665685 -3.020363
2011-06-20 11:47:29 51°24.342 2°46.998 15.5381 4.328291 34.68004 -3.020363
2011-06-20 11:48:29 51°24.243 2°46.644 15.5231 4.327565 34.694518 -3.020363
2011-06-20 11:49:29 51°24.148 2°46.286 15.5189 4.327254 34.703317 -3.020363
2011-06-20 11:50:29 51°24.06 2°45.925 15.5256 4.327669 34.70559 -3.020363
2011-06-20 11:51:29 51°23.971 2°45.568 15.5085 4.327876 34.707451 -3.020363
2011-06-20 11:52:29 51°23.873 2°45.212 15.5193 4.326528 34.705499 -3.020363
2011-06-20 11:53:29 51°23.785 2°44.853 15.4959 4.32601 34.702295 -3.020363
2011-06-20 11:54:29 51°23.691 2°44.498 15.4919 4.325181 34.707898 -3.020363
2011-06-20 11:55:29 51°23.598 2°44.142 15.4654 4.324973 34.717644 -3.020363
2011-06-20 11:56:29 51°23.512 2°43.784 15.4467 4.32487 34.731961 -3.020363
2011-06-20 11:57:29 51°23.444 2°43.421 15.4299 4.324352 34.745471 -3.020363
2011-06-20 11:58:29 51°23.368 2°43.059 15.4146 4.323833 34.76118 -3.020363
2011-06-20 11:59:29 51°23.313 2°42.691 15.4028 4.323523 34.77149 -3.020363
2011-06-20 12:00:29 51°23.261 2°42.324 15.3943 4.323626 34.775338 -3.020363
2011-06-20 12:01:29 51°23.202 2°41.96 15.3882 4.32373 34.777729 -3.020363
2011-06-20 12:02:29 51°23.136 2°41.597 15.3601 4.322693 34.782245 -3.020363
2011-06-20 12:03:29 51°23.084 2°41.23 15.3228 4.320412 34.788692 -3.020363
2011-06-20 12:04:29 51°23.029 2°40.866 15.2935 4.317716 34.795069 -3.020363
2011-06-20 12:05:29 51°22.946 2°40.524 15.2682 4.316058 34.802773 -3.020363
2011-06-20 12:06:29 51°22.739 2°40.411 15.2615 4.314088 34.812076 -3.020363
2011-06-20 12:07:29 51°22.513 2°40.424 15.2654 4.314295 34.811751 -3.020363
2011-06-20 12:08:29 51°22.285 2°40.443 15.2811 4.314502 34.807765 -3.020363
2011-06-20 12:09:29 51°22.055 2°40.439 15.3111 4.315435 34.800086 -3.020363
2011-06-20 12:10:29 51°21.824 2°40.405 15.3477 4.317405 34.789341 -3.020363
2011-06-20 12:11:29 51°21.594 2°40.363 15.3597 4.31979 34.787466 -3.020363
2011-06-20 12:12:29 51°21.369 2°40.263 15.3429 4.320723 34.789305 -3.020363
2011-06-20 12:13:29 51°21.168 2°40.073 15.3287 4.319894 34.791322 -3.020363
2011-06-20 12:14:29 51°21.045 2°39.757 15.3145 4.31865 34.792523 -3.020363
2011-06-20 12:15:29 51°20.976 2°39.401 15.2902 4.316576 34.793555 -3.020363
2011-06-20 12:16:29 51°20.919 2°39.041 15.2735 4.31471 34.794267 -3.020363
2011-06-20 12:17:29 51°20.871 2°38.677 15.2638 4.313465 34.795476 -3.020363
2011-06-20 12:18:29 51°20.837 2°38.312 15.2482 4.312325 34.799088 -3.020363
2011-06-20 12:19:29 51°20.797 2°37.948 15.2428 4.310977 34.801563 -3.020363
2011-06-20 12:20:29 51°20.758 2°37.583 15.2216 4.310562 34.803679 -3.020363
2011-06-20 12:21:29 51°20.721 2°37.218 15.2082 4.309318 34.80783 -3.020363
2011-06-20 12:22:29 51°20.686 2°36.852 15.2052 4.309007 34.808685 -3.020363
2011-06-20 12:23:29 51°20.647 2°36.488 15.1894 4.308281 34.812394 -3.020363
2011-06-20 12:24:29 51°20.605 2°36.124 15.1681 4.307141 34.814557 -3.020363
2011-06-20 12:25:29 51°20.574 2°35.757 15.1581 4.305793 34.818519 -3.020363
2011-06-20 12:26:29 51°20.532 2°35.391 15.1519 4.305171 34.819501 -3.020363
2011-06-20 12:27:29 51°20.486 2°35.027 15.1454 4.304756 34.821627 -3.020363
2011-06-20 12:28:29 51°20.443 2°34.663 15.138 4.304238 34.824285 -3.020363
2011-06-20 12:29:29 51°20.393 2°34.3 15.1396 4.30372 34.824738 -3.020363
2011-06-20 12:30:29 51°20.353 2°33.933 15.1567 4.304134 34.824817 -3.020363
2011-06-20 12:31:29 51°20.307 2°33.568 15.1842 4.305378 34.819174 -3.020363
2011-06-20 12:32:29 51°20.271 2°33.199 15.204 4.307452 34.812966 -3.020363
2011-06-20 12:33:29 51°20.229 2°32.833 15.1977 4.309007 34.816755 -3.020363
2011-06-20 12:34:29 51°20.189 2°32.467 15.189 4.308904 34.820955 -3.020363
2011-06-20 12:35:29 51°20.166 2°32.102 15.1734 4.308178 34.823935 -3.020363
2011-06-20 12:36:29 51°20.138 2°31.738 15.1564 4.307141 34.826307 -3.020363
2011-06-20 12:37:29 51°20.115 2°31.373 15.1343 4.306001 34.829214 -3.020363
2011-06-20 12:38:29 51°20.083 2°31.011 15.0993 4.304238 34.83826 -3.020363
2011-06-20 12:39:29 51°20.066 2°30.652 15.0592 4.301128 34.849843 -3.020363
2011-06-20 12:40:29 51°20.049 2°30.332 15.0359 4.298951 34.853693 -3.020363
2011-06-20 12:41:29 51°20.029 2°30.123 15.0176 4.297396 34.860985 -3.020363
2011-06-20 12:42:29 51°20.024 2°29.982 15.0074 4.296462 34.863592 -3.020363
2011-06-20 12:43:29 51°20.02 2°29.923 15.0034 4.295426 34.866738 -3.020363
2011-06-20 12:44:33 51°20.016 2°29.923 15.0033 4.295529 34.866202 -3.020363
2011-06-20 12:45:31 51°20.012 2°29.921 15.0068 4.295426 34.867478 -3.020363
2011-06-20 12:46:29 51°20.007 2°29.917 15.0061 4.29584 34.868288 -3.020363
2011-06-20 12:47:29 51°20.002 2°29.912 15.0058 4.295737 34.868824 -3.020363
2011-06-20 12:48:29 51°19.996 2°29.908 15.0023 4.295529 34.868419 -3.020363
2011-06-20 12:49:29 51°19.989 2°29.904 14.9907 4.295322 34.869493 -3.020363
2011-06-20 12:50:30 51°19.966 2°29.872 14.995 4.294596 34.869554 -3.020363
2011-06-20 12:51:29 51°19.884 2°29.767 14.9991 4.2947 34.869756 -3.020363
2011-06-20 12:52:29 51°19.735 2°29.567 15.0147 4.295529 34.868419 -3.020363
2011-06-20 12:53:29 51°19.575 2°29.322 15.0267 4.296048 34.866476 -3.020363
2011-06-20 12:54:29 51°19.407 2°29.09 15.0439 4.296981 34.860912 -3.020363
2011-06-20 12:55:30 51°19.239 2°28.852 15.0539 4.298329 34.855427 -3.020363
2011-06-20 12:56:30 51°19.072 2°28.62 15.059 4.298743 34.853287 -3.020363
2011-06-20 12:57:29 51°18.906 2°28.393 15.0566 4.299469 34.85397 -3.020363
2011-06-20 12:58:28 51°18.746 2°28.159 15.0525 4.299262 34.855777 -3.020363
2011-06-20 12:59:29 51°18.577 2°27.922 15.0467 4.298951 34.856644 -3.020363
2011-06-20 13:00:30 51°18.409 2°27.684 15.0569 4.298951 34.858858 -3.020363
2011-06-20 13:01:29 51°18.246 2°27.453 15.0571 4.299988 34.857935 -3.020363
2011-06-20 13:02:29 51°18.08 2°27.22 15.0565 4.299988 34.860148 -3.020363
2011-06-20 13:03:30 51°17.909 2°26.986 15.043 4.299573 34.862289 -3.020363
2011-06-20 13:04:29 51°17.744 2°26.76 15.0543 4.299158 34.861478 -3.020363
2011-06-20 13:05:30 51°17.581 2°26.516 15.0678 4.299884 34.859945 -3.020363
2011-06-20 13:06:29 51°17.417 2°26.29 15.0747 4.300195 34.85834 -3.020363
2011-06-20 13:07:29 51°17.253 2°26.056 15.066 4.300921 34.85681 -3.020363
2011-06-20 13:08:29 51°17.084 2°25.836 15.0732 4.300299 34.854855 -3.020363
2011-06-20 13:09:30 51°16.879 2°25.715 15.1029 4.300817 34.852183 -3.020363
2011-06-20 13:10:29 51°16.678 2°25.616 15.0555 4.302787 34.855301 -3.020363
2011-06-20 13:11:29 51°16.499 2°25.523 15.0246 4.299158 34.863692 -3.020363
2011-06-20 13:12:28 51°16.376 2°25.451 15.0069 4.296877 34.865141 -3.020363
2011-06-20 13:13:30 51°16.287 2°25.463 15.0306 4.295426 34.865999 -3.020363
2011-06-20 13:14:28 51°16.239 2°25.546 15.0574 4.298329 34.862071 -3.020363
2011-06-20 13:15:30 51°16.206 2°25.642 15.0761 4.300299 34.857068 -3.020363
2011-06-20 13:16:29 51°16.189 2°25.713 15.0899 4.301957 34.858838 -3.020363
2011-06-20 13:17:29 51°16.181 2°25.76 15.0891 4.303098 34.861069 -3.020363
2011-06-20 13:18:30 51°16.179 2°25.775 15.0632 4.303202 34.859797 -3.020363
2011-06-20 13:19:29 51°16.178 2°25.788 15.0367 4.299988 34.860886 -3.020363
2011-06-20 13:20:30 51°16.176 2°25.808 15.015 4.298018 34.865154 -3.020363
2011-06-20 13:21:30 51°16.173 2°25.829 15.0023 4.295737 34.860696 -3.020363
2011-06-20 13:22:30 51°16.134 2°25.93 14.9936 4.294907 34.866465 -3.020363
2011-06-20 13:23:30 51°16.081 2°26.201 15.037 4.294803 34.861827 -3.020363
2011-06-20 13:24:29 51°16.114 2°26.554 15.053 4.298225 34.853011 -3.020363
2011-06-20 13:25:30 51°16.172 2°26.923 15.0527 4.299469 34.863562 -3.020363
2011-06-20 13:26:30 51°16.2 2°27.29 15.0672 4.298225 34.849322 -3.020363
2011-06-20 13:27:30 51°16.216 2°27.653 15.0974 4.300609 34.850302 -3.020363
2011-06-20 13:28:29 51°16.24 2°28.001 15.0876 4.301957 34.844098 -3.020363
2011-06-20 13:29:30 51°16.26 2°28.359 15.0911 4.301231 34.84415 -3.020363
2011-06-20 13:30:28 51°16.262 2°28.703 15.0976 4.301128 34.842474 -3.020363
2011-06-20 13:31:30 51°16.267 2°29.068 15.1041 4.301439 34.837927 -3.020363
2011-06-20 13:32:29 51°16.276 2°29.415 15.1152 4.302061 34.835464 -3.020363
2011-06-20 13:33:30 51°16.28 2°29.775 15.1347 4.303409 34.834427 -3.020363
2011-06-20 13:34:30 51°16.279 2°30.131 15.1593 4.305793 34.825132 -3.020363
2011-06-20 13:35:30 51°16.28 2°30.49 15.1643 4.305378 34.805954 -3.020363
2011-06-20 13:36:29 51°16.294 2°30.844 15.181 4.305897 34.798901 -3.020363
2011-06-20 13:37:28 51°16.293 2°31.2 15.179 4.306622 34.801062 -3.020363
2011-06-20 13:38:30 51°16.295 2°31.572 15.1757 4.305793 34.803833 -3.020363
2011-06-20 13:39:28 51°16.307 2°31.923 15.1331 4.306104 34.810317 -3.020363
2011-06-20 13:40:29 51°16.321 2°32.293 15.1844 4.303823 34.809507 -3.020363
2011-06-20 13:41:28 51°16.323 2°32.654 15.1965 4.306 34.798371 -3.020363
2011-06-20 13:42:30 51°16.336 2°33.034 15.2196 4.307141 34.799881 -3.020363
2011-06-20 13:43:28 51°16.35 2°33.395 15.1731 4.308074 34.80465 -3.020363
2011-06-20 13:44:29 51°16.376 2°33.775 15.1642 4.305689 34.808768 -3.020363
2011-06-20 13:45:30 51°16.397 2°34.161 15.1368 4.304134 34.804977 -3.020363
2011-06-20 13:46:28 51°16.417 2°34.527 15.1877 4.30289 34.807673 -3.020363
2011-06-20 13:47:29 51°16.457 2°34.906 15.1743 4.304549 34.807261 -3.020363
2011-06-20 13:48:29 51°16.489 2°35.275 15.2222 4.306104 34.811051 -3.020363
2011-06-20 13:49:29 51°16.525 2°35.639 15.2506 4.311081 34.80763 -3.020363
2011-06-20 13:50:29 51°16.557 2°36.001 15.2501 4.312636 34.804827 -3.020363
2011-06-20 13:51:29 51°16.578 2°36.345 15.2817 4.312221 34.795223 -3.020363
2011-06-20 13:52:29 51°16.608 2°36.598 15.2799 4.312428 34.791239 -3.020363
2011-06-20 13:53:29 51°16.625 2°36.701 15.2892 4.313776 34.787309 -3.020363
2011-06-20 13:54:29 51°16.625 2°36.732 15.3063 4.31585 34.787739 -3.020363
2011-06-20 13:55:29 51°16.628 2°36.75 15.3055 4.316991 34.788524 -3.020363
2011-06-20 13:56:29 51°16.628 2°36.767 15.3141 4.316369 34.791684 -3.020363
2011-06-20 13:57:29 51°16.63 2°36.786 15.2934 4.316265 34.787825 -3.020363
2011-06-20 13:58:29 51°16.631 2°36.804 15.2911 4.314917 34.788094 -3.020363
2011-06-20 13:59:29 51°16.633 2°36.823 15.2738 4.313776 34.79243 -3.020363
2011-06-20 14:00:29 51°16.622 2°36.838 15.2555 4.313154 34.791205 -3.020363
2011-06-20 14:01:29 51°16.507 2°36.852 15.292 4.31274 34.792584 -3.020363
2011-06-20 14:02:29 51°16.307 2°36.884 15.3134 4.314813 34.789352 -3.020363
2011-06-20 14:03:29 51°16.099 2°36.951 15.3065 4.316887 34.78832 -3.020363
2011-06-20 14:04:29 51°15.889 2°36.983 15.3238 4.314813 34.790814 -3.020363
2011-06-20 14:05:29 51°15.68 2°37.035 15.2648 4.312843 34.777426 -3.020363
2011-06-20 14:06:29 51°15.468 2°37.091 15.27 4.312014 34.776522 -3.020363
2011-06-20 14:07:29 51°15.258 2°37.136 15.2761 4.311599 34.77351 -3.020363
2011-06-20 14:08:29 51°15.05 2°37.203 15.2846 4.311288 34.770703 -3.020363
2011-06-20 14:09:29 51°14.841 2°37.26 15.2592 4.312221 34.767427 -3.020363
2011-06-20 14:10:29 51°14.632 2°37.323 15.2644 4.310355 34.774713 -3.020363
2011-06-20 14:11:29 51°14.423 2°37.388 15.2613 4.310562 34.778049 -3.020363
2011-06-20 14:12:29 51°14.216 2°37.46 15.2395 4.310147 34.787479 -3.020363
2011-06-20 14:13:29 51°14.01 2°37.518 15.2454 4.310044 34.789471 -3.020363
2011-06-20 14:14:29 51°13.803 2°37.579 15.2737 4.311392 34.787001 -3.020363
2011-06-20 14:15:29 51°13.598 2°37.588 15.2607 4.313465 34.789622 -3.020363
2011-06-20 14:16:29 51°13.392 2°37.556 15.2498 4.312843 34.794252 -3.020363
2011-06-20 14:17:29 51°13.184 2°37.533 15.2473 4.311392 34.792858 -3.020363
2011-06-20 14:18:29 51°12.98 2°37.476 15.2718 4.311288 34.788993 -3.020363
2011-06-20 14:19:30 51°12.775 2°37.416 15.3413 4.313465 34.779384 -3.020363
2011-06-20 14:20:29 51°12.576 2°37.371 15.4044 4.318649 34.764785 -3.020363
2011-06-20 14:21:30 51°12.371 2°37.331 15.4409 4.322278 34.747915 -3.020363
2011-06-20 14:22:29 51°12.187 2°37.231 15.4713 4.323833 34.734994 -3.020363
2011-06-20 14:23:30 51°11.998 2°37.118 15.489 4.325388 34.729356 -3.020363
2011-06-20 14:24:29 51°11.813 2°37.014 15.5066 4.326944 34.725179 -3.020363
2011-06-20 14:25:30 51°11.618 2°36.924 15.5202 4.328291 34.722048 -3.020363
2011-06-20 14:26:29 51°11.437 2°36.814 15.5005 4.329017 34.718412 -3.020363
2011-06-20 14:27:28 51°11.252 2°36.724 15.475 4.327151 34.719786 -3.020363
2011-06-20 14:28:29 51°11.065 2°36.617 15.4542 4.324351 34.719314 -3.020363
2011-06-20 14:29:28 51°10.886 2°36.51 15.4471 4.322485 34.719244 -3.020363
2011-06-20 14:30:29 51°10.696 2°36.419 15.4445 4.321759 34.714899 -3.020363
2011-06-20 14:31:28 51°10.51 2°36.347 15.4523 4.321344 34.710444 -3.020363
2011-06-20 14:32:29 51°10.313 2°36.297 15.4687 4.321759 34.704733 -3.020363
2011-06-20 14:33:29 51°10.112 2°36.313 15.4717 4.322381 34.699437 -3.020363
2011-06-20 14:34:29 51°9.986 2°36.582 15.5763 4.319477 34.664661 -3.020363
2011-06-20 14:35:30 51°9.973 2°36.964 15.691 4.333372 34.682924 -3.020363
2011-06-20 14:36:29 51°10.022 2°37.334 15.6758 4.341356 34.677182 -3.020363
2011-06-20 14:37:30 51°10.104 2°37.705 15.6578 4.3398 34.678407 -3.020363
2011-06-20 14:38:29 51°10.18 2°38.066 15.6374 4.337415 34.677262 -3.020363
2011-06-20 14:39:29 51°10.242 2°38.438 15.624 4.335445 34.67478 -3.020363
2011-06-20 14:40:28 51°10.321 2°38.799 15.6355 4.334097 34.671373 -3.020363
2011-06-20 14:41:29 51°10.41 2°39.169 15.6412 4.335549 34.667773 -3.020363
2011-06-20 14:42:30 51°10.482 2°39.547 15.6325 4.335652 34.670865 -3.020363
2011-06-20 14:43:29 51°10.575 2°39.901 15.6413 4.334616 34.670242 -3.020363
2011-06-20 14:44:29 51°10.643 2°40.274 15.6108 4.335341 34.674574 -3.020363
2011-06-20 14:45:30 51°10.734 2°40.641 15.602 4.333371 34.67498 -3.020363
2011-06-20 14:46:29 51°10.817 2°40.996 15.623 4.333164 34.677455 -3.020363
2011-06-20 14:47:29 51°10.905 2°41.355 15.603 4.335549 34.677873 -3.020363
2011-06-20 14:48:28 51°10.962 2°41.644 15.5687 4.333268 34.68633 -3.020363
2011-06-20 14:49:28 51°11.01 2°41.831 15.5692 4.330676 34.686232 -3.020363
2011-06-20 14:50:29 51°11.053 2°41.933 15.566 4.330572 34.686026 -3.020363
2011-06-20 14:51:28 51°11.077 2°41.998 15.5659 4.330468 34.687266 -3.020363
2011-06-20 14:52:33 51°11.084 2°42.019 15.563 4.330365 34.687783 -3.020363
2011-06-20 14:53:31 51°11.091 2°42.038 15.5547 4.329742 34.687992 -3.020363
2011-06-20 14:54:29 51°11.097 2°42.06 15.5538 4.329431 34.687373 -3.020363
2011-06-20 14:55:29 51°11.105 2°42.085 15.5538 4.329328 34.68789 -3.020363
2011-06-20 14:56:29 51°11.11 2°42.147 15.5499 4.329224 34.687684 -3.020363
2011-06-20 14:57:29 51°11.115 2°42.382 15.5591 4.329328 34.687167 -3.020363
2011-06-20 14:58:29 51°11.153 2°42.736 15.5849 4.329846 34.686028 -3.020363
2011-06-20 14:59:29 51°11.196 2°43.109 15.6074 4.332749 34.684576 -3.020363
2011-06-20 15:00:29 51°11.267 2°43.474 15.6273 4.334512 34.685194 -3.020363
2011-06-20 15:01:29 51°11.325 2°43.845 15.6452 4.336275 34.682205 -3.020363
2011-06-20 15:02:29 51°11.395 2°44.216 15.656 4.326734 34.585321 -3.020363
2011-06-20 15:03:29 51°11.469 2°44.582 15.6708 4.327667 34.580722 -3.020363
2011-06-20 15:04:29 51°11.535 2°44.953 15.677 4.3286 34.577564 -3.020363
2011-06-20 15:05:28 51°11.612 2°45.312 15.6924 4.328911 34.573878 -3.020363
2011-06-20 15:06:29 51°11.678 2°45.687 15.7055 4.329222 34.566603 -3.020363
2011-06-20 15:07:29 51°11.755 2°46.052 15.7366 4.330259 34.559358 -3.020363
2011-06-20 15:08:29 51°11.838 2°46.414 15.7691 4.332644 34.552686 -3.020363
2011-06-20 15:09:29 51°11.932 2°46.768 15.7872 4.334925 34.548684 -3.020363
2011-06-20 15:10:29 51°12.039 2°47.116 15.8091 4.336791 34.547433 -3.020363
2011-06-20 15:11:29 51°12.137 2°47.473 15.8126 4.338658 34.549762 -3.020363
2011-06-20 15:12:28 51°12.229 2°47.825 15.8092 4.338969 34.552534 -3.020363
2011-06-20 15:13:29 51°12.348 2°48.17 15.8128 4.339383 34.554084 -3.020363
2011-06-20 15:14:29 51°12.452 2°48.522 15.8075 4.339591 34.556648 -3.020363
2011-06-20 15:15:29 51°12.561 2°48.869 15.8338 4.339695 34.553995 -3.020363
2011-06-20 15:16:28 51°12.658 2°49.217 15.8017 4.340939 34.552926 -3.020363
2011-06-20 15:17:28 51°12.766 2°49.564 15.8027 4.338139 34.550148 -3.020363
2011-06-20 15:18:29 51°12.869 2°49.92 15.8105 4.337413 34.543679 -3.020363
2011-06-20 15:19:29 51°12.993 2°50.251 15.8419 4.337724 34.531439 -3.020363
2011-06-20 15:20:29 51°13.117 2°50.585 15.8499 4.339279 34.525292 -3.020363
2011-06-20 15:21:29 51°13.23 2°50.928 15.8587 4.340524 34.529231 -3.020363
2011-06-20 15:22:28 51°13.347 2°51.261 15.8812 4.341872 34.530524 -3.020363
2011-06-20 15:23:29 51°13.471 2°51.601 15.8803 4.342701 34.522212 -3.020363
2011-06-20 15:24:29 51°13.594 2°51.933 15.885 4.341249 34.514288 -3.020363
2011-06-20 15:25:28 51°13.715 2°52.259 15.9056 4.342597 34.51131 -3.020363
2011-06-20 15:26:29 51°13.847 2°52.591 15.9311 4.344878 34.516632 -3.020363
2011-06-20 15:27:30 51°13.992 2°52.911 15.9525 4.347263 34.516466 -3.020363
2011-06-20 15:28:28 51°14.126 2°53.223 15.9712 4.34913 34.518103 -3.020363
2011-06-20 15:29:29 51°14.268 2°53.531 16.1945 0.132783 0.810444 -3.020363
2011-06-20 15:30:29 51°14.389 2°53.828 16.2797 0.076743 0.457763 -3.020363
2011-06-20 15:31:29 51°14.49 2°54.113 16.3625 0.063788 0.377852 -3.020363
2011-06-20 15:32:29 51°14.575 2°54.399 16.4483 0.057105 0.336889 -3.020363
2011-06-20 15:33:29 51°14.631 2°54.639 16.5233 0.053095 0.312364 -3.020363
2011-06-20 15:34:29 51°14.618 2°54.877 16.5932 0.049908 0.29291 -3.020363
2011-06-20 15:35:29 51°14.504 2°55.076 16.6432 0.047646 0.279098 -3.020363
2011-06-20 15:36:30 51°14.354 2°55.225 16.7001 0.045692 0.267189 -3.020363
2011-06-20 15:37:30 51°14.224 2°55.344 16.7885 0.043944 0.256548 -3.020363
2011-06-20 15:38:30 51°14.115 2°55.428 16.8625 0.042505 0.247778 -3.020363
2011-06-20 15:39:29 51°14.028 2°55.488 16.9326 0.041066 0.239036 -3.020363
2011-06-20 15:40:29 51°13.953 2°55.54 17.0089 0.039832 0.231539 -3.020363
2011-06-20 15:41:29 51°13.879 2°55.592 17.0849 0.038804 0.225283 -3.020363
2011-06-20 15:42:28 51°13.809 2°55.648 17.1408 0.037776 0.219045 -3.020363
2011-06-20 15:43:30 51°13.757 2°55.72 17.2315 0.03685 0.213427 -3.020363
2011-06-20 15:44:29 51°13.72 2°55.788 17.3108 0.036028 0.20843 -3.020363
2011-06-20 15:45:30 51°13.692 2°55.842 17.3702 0.035308 0.204052 -3.020363
2011-06-20 15:46:29 51°13.687 2°55.845 17.443 0.034588 0.19968 -3.020363
2011-06-20 15:47:30 51°13.688 2°55.84 17.5117 0.033972 0.195927 -3.020363
2011-06-20 15:48:29 51°13.67 2°55.871 17.5841 0.033355 0.192178 -3.020363
2011-06-20 15:49:29 51°13.639 2°55.955 17.6606 0.032738 0.188442 -3.020363
2011-06-20 15:50:29 51°13.635 2°56.012 17.7184 0.032224 0.185308 -3.020363